createdAt,value
2023-03-08T00:02:59.320Z,99341.91
2023-03-08T00:13:03.917Z,99345.25
2023-03-08T00:23:06.982Z,99335.16
2023-03-08T00:33:11.128Z,99335.97
2023-03-08T00:43:14.408Z,99322.41
2023-03-08T00:53:19.130Z,99317.31
2023-03-08T01:03:22.952Z,99315.69
2023-03-08T01:13:28.994Z,99294.47
2023-03-08T01:23:32.179Z,99278.38
2023-03-08T01:33:37.594Z,99260.69
2023-03-08T01:43:45.453Z,99250.50
2023-03-08T01:53:50.328Z,99228.50
2023-03-08T02:03:53.432Z,99223.38
2023-03-08T02:13:58.451Z,99215.69
2023-03-08T02:24:07.908Z,99211.66
2023-03-08T02:34:11.131Z,99200.75
2023-03-08T02:44:15.342Z,99182.16
2023-03-08T02:54:18.579Z,99170.56
2023-03-08T03:04:23.154Z,99163.00
2023-03-08T03:14:28.978Z,99148.56
2023-03-08T03:24:36.574Z,99123.16
2023-03-08T03:34:41.874Z,99117.19
2023-03-08T03:44:47.282Z,99106.22
2023-03-08T03:54:55.298Z,99096.09
2023-03-08T04:05:01.419Z,99090.22
2023-03-08T04:15:11.404Z,99081.03
2023-03-08T04:25:16.588Z,99064.25
2023-03-08T04:35:26.360Z,99047.28
2023-03-08T04:45:32.373Z,99030.44
2023-03-08T04:55:39.404Z,99005.16
2023-03-08T05:05:48.177Z,98983.25
2023-03-08T05:15:51.801Z,98963.66
2023-03-08T05:25:58.529Z,98943.50
2023-03-08T05:36:01.722Z,98905.66
2023-03-08T05:46:08.754Z,98900.44
2023-03-08T05:56:18.970Z,98870.78
2023-03-08T06:06:45.260Z,98845.53
2023-03-08T06:16:49.050Z,98820.03
2023-03-08T06:26:56.683Z,98782.81
2023-03-08T06:37:00.741Z,98771.78
2023-03-08T06:47:05.783Z,98743.25
2023-03-08T06:57:08.765Z,98721.69
2023-03-08T07:07:13.500Z,98697.94
2023-03-08T07:17:16.590Z,98682.47
2023-03-08T07:27:46.157Z,98674.69
2023-03-08T07:37:49.746Z,98659.34
2023-03-08T07:47:55.112Z,98658.19
2023-03-08T07:57:58.211Z,98648.75
2023-03-08T08:08:03.618Z,98645.44
2023-03-08T08:18:08.447Z,98624.84
2023-03-08T08:28:12.714Z,98611.56
2023-03-08T08:38:16.178Z,98591.53
2023-03-08T08:48:21.502Z,98578.06
2023-03-08T08:58:26.853Z,98565.03
2023-03-08T09:08:34.630Z,98571.16
2023-03-08T09:19:04.094Z,98548.19
2023-03-08T09:29:09.472Z,98539.00
2023-03-08T09:39:15.115Z,98533.69
2023-03-08T10:01:39.298Z,98501.69
2023-03-08T10:11:48.725Z,98501.25
2023-03-08T10:21:56.341Z,98506.25
2023-03-08T10:31:59.185Z,98483.97
2023-03-08T10:42:16.384Z,98492.25
2023-03-08T10:52:26.314Z,98482.53
2023-03-08T11:02:30.730Z,98485.59
2023-03-08T11:12:33.860Z,98479.03
2023-03-08T11:23:00.133Z,98466.72
2023-03-08T11:33:22.761Z,98450.06
2023-03-08T11:43:54.412Z,98438.00
2023-03-08T11:54:09.495Z,98426.03
2023-03-08T12:04:19.927Z,98424.28
2023-03-08T12:14:28.045Z,98415.88
2023-03-08T12:24:48.942Z,98395.94
2023-03-08T12:35:04.477Z,98390.22
2023-03-08T12:45:31.046Z,98385.19
2023-03-08T12:55:34.622Z,98369.94
2023-03-08T13:05:40.514Z,98384.00
2023-03-08T13:15:43.155Z,98372.94
2023-03-08T13:26:00.181Z,98367.34
2023-03-08T13:36:05.344Z,98349.63
2023-03-08T13:46:16.653Z,98337.00
2023-03-08T13:56:24.921Z,98326.81
2023-03-08T14:06:31.216Z,98310.75
2023-03-08T14:16:37.257Z,98306.59
2023-03-08T14:26:42.090Z,98298.59
2023-03-08T14:36:53.168Z,98289.97
2023-03-08T14:47:00.513Z,98273.97
2023-03-08T14:57:17.361Z,98284.16
2023-03-08T15:07:24.770Z,98279.97
2023-03-08T15:17:28.110Z,98269.91
2023-03-08T15:27:34.864Z,98246.00
2023-03-08T15:37:37.836Z,98239.44
2023-03-08T15:47:43.141Z,98253.53
2023-03-08T15:57:46.674Z,98261.84
2023-03-08T16:07:55.418Z,98285.22
2023-03-08T16:18:25.547Z,98294.97
2023-03-08T16:28:33.151Z,98267.28
2023-03-08T16:38:36.108Z,98263.63
2023-03-08T16:48:40.080Z,98245.81
2023-03-08T16:58:42.917Z,98261.03
2023-03-08T17:08:48.030Z,98276.09
2023-03-08T17:18:52.707Z,98276.56
2023-03-08T17:28:57.324Z,98284.66
2023-03-08T17:39:00.235Z,98277.66
2023-03-08T17:49:04.965Z,98276.25
2023-03-08T17:59:13.883Z,98280.53
2023-03-08T18:09:18.104Z,98284.59
2023-03-08T18:19:21.172Z,98287.16
2023-03-08T18:29:25.890Z,98291.59
2023-03-08T18:39:54.427Z,98264.13
2023-03-08T18:49:58.939Z,98299.56
2023-03-08T19:00:03.142Z,98278.47
2023-03-08T19:10:14.941Z,98286.75
2023-03-08T19:20:19.466Z,98279.19
2023-03-08T19:30:26.432Z,98284.03
2023-03-08T19:40:29.750Z,98274.94
2023-03-08T19:50:33.929Z,98274.38
2023-03-08T20:00:36.909Z,98260.56
2023-03-08T20:10:41.365Z,98268.69
2023-03-08T20:20:47.861Z,98247.44
2023-03-08T20:30:52.774Z,98236.38
2023-03-08T20:41:02.795Z,98248.88
2023-03-08T20:51:10.056Z,98236.84
2023-03-08T21:01:15.391Z,98234.19
2023-03-08T21:11:21.127Z,98225.50
2023-03-08T21:21:27.784Z,98254.09
2023-03-08T21:31:34.237Z,98242.28
2023-03-08T21:41:40.527Z,98235.59
2023-03-08T21:51:46.130Z,98212.81
2023-03-08T22:01:50.898Z,98175.22
2023-03-08T22:11:56.911Z,98160.50
2023-03-08T22:22:00.976Z,98149.28
2023-03-08T22:32:09.204Z,98138.88
2023-03-08T22:42:12.301Z,98139.50
2023-03-08T22:52:16.502Z,98127.56
2023-03-08T23:02:19.814Z,98128.50
2023-03-08T23:12:25.342Z,98114.59
2023-03-08T23:22:29.059Z,98098.63
2023-03-08T23:32:34.522Z,98080.91
2023-03-08T23:42:38.329Z,98078.22
2023-03-08T23:52:43.208Z,98066.41
